Ohrid, Macedonia

01:59 PM CEST на 21 Септември, 2017 (GMT +0200)
Ohrid | | Change Station

Elev 2497 ft 41.12 °N, 20.80 °E | Updated 29 minutes ago

Дожд
Дожд
61 °F
Feels Like 61 °F
С
12
Ветер Променлив Ветер from Југ

Денес
High -- | Low -- °F
--% Chance of Precip.
Вчера
High -- | Low -- °F
Precip. -- инчи
Притисок 29.98 инчи
Видливост 6.2 миљи
Облаци Претежно облачно 4000 ft
Точка на kондензација 48 °F
Влажност 63%
Дожд 0.00 инчи
Височина на снег Not available.
6:23 AM 6:35 PM
Млада Месечината, 2% visible
METAR LWOH 211130Z 19010KT 170V240 9999 BKN040 16/09 Q1015
Притисок 29.98 инчи
Видливост 6.2 миљи
Облаци Претежно облачно 4000 ft
Точка на kондензација 48 °F
Влажност 63%
Дожд 0.00 инчи
Височина на снег Not available.
6:23 AM 6:35 PM
Млада Месечината, 2% visible
METAR LWOH 211130Z 19010KT 170V240 9999 BKN040 16/09 Q1015

Get Severe Weather Alerts

Thanks for signing up!

Be on the lookout for a verification email in your inbox.

You'll start receiving the daily forecast at 6 AM.

×

10-Day Weather Forecast

×

Almanac

Астрономијата

Sep. 21, 2017 Изгревање Заоѓање
Актуелно време
Граѓанскиот самрак
Наутички самрак
Астрономски самрак
Месечината
Должина на видливата светлина
Должина на денот
Tomorrow will be .
, % of the Moon is Illuminated

Екстреми денес

Country Highs Country Lows

Community

WunderPhotos

Category 6

Welcome to Category 6. This is the collective home for Weather Underground's featured writeups by Dr. Jeff Masters (right), Bob Henson (left), Chris Burt, and other regular contributors.

Nearby

Квалитетот на воздухот

  Квалитетот на воздухот AQ индекс Загадувач
Not available.

Височина на снег

Station Depth Висина

Earthquake Activity

Град Distance Mag. Time & Date
Minimum magnitude displayed is 2.5.

Coastal Water Temperatures

Место Температура

Stations

Nearby Weather Stations

Локација на станицата Темп. Лични чувство за темп. со ветерот Точка на kондензација Влажност Ветер Precip. Elev Ажурирани Тип